Time;durP1;ratioP1;P1;durP2;ratioP2;P2;SDS_P1;SDS_P2;PMS_P1;PMS_P2;Temp;Humidity;BMP_temperature;BMP_pressure;BME280_temperature;BME280_humidity;BME280_pressure;Samples;Min_cycle;Max_cycle;Signal;HPM_P1;HPM_P2
2023/07/24 00:00:25;;;;;;;12.27;7.17;;;19.00;99.90;;;;;;5020344;28;20315;-84
2023/07/24 00:02:53;;;;;;;22.00;7.33;;;18.30;99.90;;;;;;5016734;28;20563;-84
2023/07/24 00:05:18;;;;;;;8.40;4.43;;;18.30;99.90;;;;;;5012451;28;20181;-85
2023/07/24 00:07:44;;;;;;;9.40;5.90;;;18.10;99.90;;;;;;5016365;28;20462;-85
2023/07/24 00:10:10;;;;;;;11.00;6.60;;;18.30;99.90;;;;;;5022706;28;20777;-78
2023/07/24 00:12:35;;;;;;;9.03;5.93;;;18.30;99.90;;;;;;5023265;28;21502;-87
2023/07/24 00:15:01;;;;;;;14.10;5.70;;;18.20;99.90;;;;;;5020846;28;20702;-81
2023/07/24 00:17:26;;;;;;;9.40;5.77;;;18.20;99.90;;;;;;5015937;28;20220;-85
2023/07/24 00:19:52;;;;;;;10.77;6.27;;;18.10;99.90;;;;;;5022026;28;20178;-82
2023/07/24 00:22:17;;;;;;;11.53;7.17;;;18.20;99.90;;;;;;5016171;28;20213;-84
2023/07/24 00:24:43;;;;;;;13.90;7.40;;;18.30;99.90;;;;;;5020574;28;20184;-83
2023/07/24 00:27:08;;;;;;;15.37;6.80;;;18.20;99.90;;;;;;5025113;28;20228;-86
2023/07/24 00:29:34;;;;;;;14.57;7.13;;;18.30;99.90;;;;;;5026580;28;20841;-85
2023/07/24 00:31:59;;;;;;;13.63;7.03;;;18.20;99.90;;;;;;5024367;28;20700;-86
2023/07/24 00:34:25;;;;;;;13.73;7.13;;;18.20;99.90;;;;;;5023821;28;20182;-84
2023/07/24 00:36:50;;;;;;;12.50;6.20;;;18.40;99.90;;;;;;5017233;28;20259;-84
2023/07/24 00:39:16;;;;;;;9.63;6.43;;;18.30;99.90;;;;;;5024678;28;20267;-81
2023/07/24 00:41:42;;;;;;;13.00;7.60;;;18.40;99.90;;;;;;5017621;28;20181;-83
2023/07/24 00:44:08;;;;;;;11.87;7.03;;;18.40;99.90;;;;;;5021018;28;20197;-82
2023/07/24 00:46:35;;;;;;;11.27;6.57;;;18.30;99.90;;;;;;5017210;28;20466;-81
2023/07/24 00:49:02;;;;;;;10.93;6.80;;;18.60;99.90;;;;;;5041938;28;20216;-79
2023/07/24 00:51:27;;;;;;;10.87;6.90;;;18.40;99.90;;;;;;5042316;28;20488;-86
2023/07/24 00:53:59;;;;;;;11.00;8.07;;;18.40;99.90;;;;;;5045190;28;20447;-84
2023/07/24 00:56:26;;;;;;;17.20;8.20;;;18.40;99.90;;;;;;5030418;28;20280;-87
2023/07/24 00:58:52;;;;;;;13.33;6.70;;;18.40;99.90;;;;;;5026024;28;20444;-83
2023/07/24 01:01:18;;;;;;;11.37;6.80;;;18.40;99.90;;;;;;5014791;28;20445;-84
2023/07/24 01:03:44;;;;;;;11.77;7.63;;;18.50;99.90;;;;;;5024705;28;20273;-83
2023/07/24 01:06:09;;;;;;;12.30;8.50;;;18.50;99.90;;;;;;5019750;28;20253;-83
2023/07/24 01:08:36;;;;;;;11.70;6.50;;;18.60;99.90;;;;;;5024422;28;20525;-82
2023/07/24 01:11:24;;;;;;;14.70;8.40;;;18.50;99.90;;;;;;5017610;28;20188;-85
2023/07/24 01:14:03;;;;;;;12.83;7.60;;;18.50;99.90;;;;;;5017369;28;20475;-83
2023/07/24 01:16:40;;;;;;;12.10;7.63;;;18.20;99.90;;;;;;5017017;28;20499;-83
2023/07/24 01:19:13;;;;;;;14.30;9.10;;;18.20;99.90;;;;;;5012929;28;20468;-82
2023/07/24 01:21:52;;;;;;;11.87;7.43;;;18.20;99.90;;;;;;5021763;28;20959;-81
2023/07/24 01:24:59;;;;;;;11.87;8.07;;;18.10;99.90;;;;;;5042575;28;20457;-83
2023/07/24 01:27:25;;;;;;;14.53;8.40;;;17.90;99.90;;;;;;5027433;28;20442;-84
2023/07/24 01:29:50;;;;;;;13.27;8.10;;;17.70;99.90;;;;;;5015160;28;20448;-81
2023/07/24 01:32:16;;;;;;;14.50;9.27;;;17.70;99.90;;;;;;5017814;28;20472;-88
2023/07/24 01:34:42;;;;;;;11.77;8.27;;;17.70;99.90;;;;;;5022218;28;20186;-82
2023/07/24 01:37:09;;;;;;;11.33;7.43;;;17.60;99.90;;;;;;5020618;28;20490;-84
2023/07/24 01:39:35;;;;;;;16.00;8.50;;;17.60;99.90;;;;;;5022558;28;20198;-84
2023/07/24 01:42:01;;;;;;;18.53;8.90;;;17.40;99.90;;;;;;5012437;28;20433;-84
2023/07/24 01:44:27;;;;;;;12.90;7.93;;;17.30;99.90;;;;;;5020969;28;20551;-81
2023/07/24 01:46:52;;;;;;;12.67;8.50;;;17.20;99.90;;;;;;5022236;28;20571;-84
2023/07/24 01:49:18;;;;;;;12.97;9.00;;;17.20;99.90;;;;;;5022524;28;20206;-82
2023/07/24 01:51:43;;;;;;;15.43;8.90;;;17.40;99.90;;;;;;5025758;28;20248;-83
2023/07/24 01:54:09;;;;;;;14.40;9.20;;;17.40;99.90;;;;;;5025156;28;20686;-80
2023/07/24 01:56:37;;;;;;;11.23;7.43;;;17.60;99.90;;;;;;5021161;28;20888;-84
2023/07/24 01:59:02;;;;;;;12.57;7.43;;;17.60;99.90;;;;;;5033900;28;20224;-82
2023/07/24 02:01:28;;;;;;;10.77;7.63;;;17.60;99.90;;;;;;5032140;28;20452;-83
2023/07/24 02:03:53;;;;;;;11.80;8.13;;;17.60;99.90;;;;;;5031504;28;20370;-83
2023/07/24 02:06:19;;;;;;;11.43;7.93;;;17.70;99.90;;;;;;5024886;28;20193;-81
2023/07/24 02:08:48;;;;;;;12.90;7.90;;;17.50;99.90;;;;;;5021555;28;20296;-85
2023/07/24 02:11:15;;;;;;;23.00;8.57;;;18.10;99.90;;;;;;5021731;28;20218;-81
2023/07/24 02:13:43;;;;;;;14.03;8.70;;;17.60;99.90;;;;;;5021755;28;20430;-83
2023/07/24 02:16:08;;;;;;;15.10;8.57;;;17.70;99.90;;;;;;5028792;28;20515;-84
2023/07/24 02:18:34;;;;;;;12.57;8.47;;;19.00;99.90;;;;;;5021399;28;20922;-85
2023/07/24 02:20:59;;;;;;;20.40;9.93;;;17.90;99.90;;;;;;5024157;28;20170;-84
2023/07/24 02:23:25;;;;;;;17.10;8.70;;;17.90;99.90;;;;;;5022632;28;20182;-85
2023/07/24 02:25:52;;;;;;;14.33;8.03;;;17.80;99.90;;;;;;5018880;28;20214;-85
2023/07/24 02:28:17;;;;;;;12.00;7.97;;;17.80;99.90;;;;;;5016499;28;20205;-82
2023/07/24 02:30:43;;;;;;;16.27;8.73;;;17.80;99.90;;;;;;5024302;28;20494;-84
2023/07/24 02:33:08;;;;;;;13.93;9.03;;;18.10;99.90;;;;;;5026484;28;20602;-85
2023/07/24 02:35:41;;;;;;;15.80;7.70;;;17.70;99.90;;;;;;5023357;28;20182;-84
2023/07/24 02:38:06;;;;;;;14.57;9.03;;;17.60;99.90;;;;;;5015488;28;20202;-82
2023/07/24 02:40:33;;;;;;;14.77;7.80;;;17.50;99.90;;;;;;5025557;28;20482;-86
2023/07/24 02:42:58;;;;;;;14.40;9.27;;;17.50;99.90;;;;;;5019567;28;20428;-86
2023/07/24 02:45:24;;;;;;;12.00;7.97;;;17.50;99.90;;;;;;5019006;28;20458;-86
2023/07/24 02:47:49;;;;;;;13.97;7.53;;;17.50;99.90;;;;;;5021706;28;20224;-81
2023/07/24 02:50:15;;;;;;;14.60;7.93;;;17.60;99.90;;;;;;5023049;28;20182;-87
2023/07/24 02:52:40;;;;;;;12.80;8.07;;;17.60;99.90;;;;;;5026143;28;20198;-83
2023/07/24 02:55:06;;;;;;;14.23;7.87;;;18.20;99.90;;;;;;5017134;28;20449;-81
2023/07/24 02:57:31;;;;;;;12.80;7.43;;;17.80;99.90;;;;;;5017365;28;20186;-80
2023/07/24 02:59:57;;;;;;;17.10;8.93;;;17.60;99.90;;;;;;5023212;28;20259;-86
2023/07/24 03:02:23;;;;;;;13.53;7.60;;;17.70;99.90;;;;;;5019943;28;20187;-83
2023/07/24 03:04:48;;;;;;;14.00;8.47;;;17.70;99.90;;;;;;5024418;28;20186;-85
2023/07/24 03:07:14;;;;;;;12.10;8.30;;;17.70;99.90;;;;;;5016199;28;20731;-85
2023/07/24 03:09:40;;;;;;;16.70;9.30;;;;;;;;;;5019679;28;20287;-84
2023/07/24 03:12:05;;;;;;;15.03;7.70;;;17.80;99.90;;;;;;5027199;28;20213;-86
2023/07/24 03:14:31;;;;;;;12.53;7.70;;;18.00;99.90;;;;;;5019492;28;20440;-81
2023/07/24 03:16:56;;;;;;;14.77;8.07;;;18.10;99.90;;;;;;5021592;28;20428;-83
2023/07/24 03:19:22;;;;;;;11.50;6.83;;;18.00;99.90;;;;;;5035909;28;20260;-83
2023/07/24 03:21:48;;;;;;;12.63;7.83;;;17.90;99.90;;;;;;5030341;28;20212;-85
2023/07/24 03:24:13;;;;;;;11.70;8.00;;;17.80;99.90;;;;;;5020946;28;20189;-84
2023/07/24 03:26:39;;;;;;;12.30;7.70;;;17.80;99.90;;;;;;5019374;28;20623;-84
2023/07/24 03:29:05;;;;;;;11.30;7.33;;;18.00;99.90;;;;;;5046244;28;20457;-80
2023/07/24 03:31:30;;;;;;;20.80;9.20;;;18.00;99.90;;;;;;5025428;28;20247;-83
2023/07/24 03:33:56;;;;;;;15.00;7.90;;;17.90;99.90;;;;;;5016349;28;20459;-85
2023/07/24 03:36:21;;;;;;;13.03;8.77;;;17.80;99.90;;;;;;5030442;28;20178;-79
2023/07/24 03:38:47;;;;;;;13.47;7.80;;;17.90;99.90;;;;;;5020240;28;20212;-84
2023/07/24 03:41:12;;;;;;;14.17;8.53;;;18.00;99.90;;;;;;5015866;28;20196;-82
2023/07/24 03:43:38;;;;;;;14.83;8.07;;;18.10;99.90;;;;;;5017900;28;20697;-83
2023/07/24 03:46:03;;;;;;;13.90;7.33;;;18.10;99.90;;;;;;5019114;28;20229;-81
2023/07/24 03:48:29;;;;;;;12.50;7.07;;;;;;;;;;5038616;28;20213;-84
2023/07/24 03:51:02;;;;;;;12.03;7.50;;;18.20;99.90;;;;;;5039464;28;20170;-83
2023/07/24 03:53:28;;;;;;;13.80;8.23;;;18.10;99.90;;;;;;5013519;28;20451;-83
2023/07/24 03:55:54;;;;;;;14.00;7.17;;;18.40;99.90;;;;;;5019277;28;20520;-82
2023/07/24 03:58:20;;;;;;;11.90;7.80;;;18.60;99.90;;;;;;5012863;28;20460;-84
2023/07/24 04:00:46;;;;;;;16.27;7.73;;;18.80;99.90;;;;;;5008595;28;21089;-84
2023/07/24 04:03:11;;;;;;;9.20;6.30;;;18.80;99.90;;;;;;5022191;28;20440;-85
2023/07/24 04:05:37;;;;;;;13.00;6.30;;;18.90;99.90;;;;;;5017839;28;20436;-82
2023/07/24 04:08:03;;;;;;;15.10;8.63;;;19.10;99.90;;;;;;5023417;28;20733;-83
2023/07/24 04:10:30;;;;;;;13.17;6.97;;;19.10;99.90;;;;;;5015813;28;20188;-86
2023/07/24 04:12:56;;;;;;;13.80;8.33;;;19.10;99.90;;;;;;5022911;28;21684;-81
2023/07/24 04:15:22;;;;;;;13.77;7.27;;;19.00;99.90;;;;;;5021326;28;20508;-81
2023/07/24 04:17:48;;;;;;;11.47;7.83;;;19.00;99.90;;;;;;5032253;28;20488;-84
2023/07/24 04:20:13;;;;;;;15.47;7.23;;;19.10;99.90;;;;;;5034622;28;20420;-88
2023/07/24 04:22:39;;;;;;;16.47;8.70;;;19.00;99.90;;;;;;5021367;28;20638;-85
2023/07/24 04:25:05;;;;;;;15.17;7.77;;;19.00;99.90;;;;;;5019349;28;20182;-84
2023/07/24 04:27:30;;;;;;;11.87;8.20;;;19.10;99.90;;;;;;5026204;28;20453;-82
2023/07/24 04:29:56;;;;;;;10.93;7.00;;;19.10;99.90;;;;;;5019063;28;20201;-86
2023/07/24 04:32:21;;;;;;;11.83;7.50;;;19.20;99.90;;;;;;5015502;28;20260;-81
2023/07/24 04:34:47;;;;;;;12.50;7.33;;;19.30;99.90;;;;;;5032920;28;20731;-81
2023/07/24 04:37:13;;;;;;;15.33;8.97;;;19.50;99.90;;;;;;5021033;28;20190;-81
2023/07/24 04:39:38;;;;;;;12.47;6.90;;;19.50;99.90;;;;;;5018630;28;20206;-83
2023/07/24 04:42:05;;;;;;;11.17;7.30;;;19.40;99.90;;;;;;5020053;28;20190;-82
2023/07/24 04:44:31;;;;;;;12.77;7.30;;;19.40;99.90;;;;;;5015864;28;20445;-83
2023/07/24 04:46:58;;;;;;;16.10;7.77;;;19.40;99.90;;;;;;5021695;28;20847;-83
2023/07/24 04:49:24;;;;;;;14.43;7.87;;;20.00;99.90;;;;;;5020623;28;22787;-84
2023/07/24 04:51:50;;;;;;;13.90;7.67;;;19.90;99.90;;;;;;5018316;28;20472;-85
2023/07/24 04:54:15;;;;;;;13.00;7.80;;;20.00;99.90;;;;;;5005695;28;20444;-85
2023/07/24 04:56:41;;;;;;;13.13;8.80;;;20.10;99.90;;;;;;5040524;28;20711;-78
2023/07/24 04:59:07;;;;;;;13.33;7.67;;;;;;;;;;5013172;28;20209;-79
2023/07/24 05:01:32;;;;;;;14.47;7.33;;;20.20;99.90;;;;;;5014158;28;20797;-85
2023/07/24 05:03:58;;;;;;;20.40;8.50;;;20.30;99.90;;;;;;5011998;28;20869;-86
2023/07/24 05:06:23;;;;;;;14.60;7.60;;;20.70;99.90;;;;;;5011310;28;20185;-87
2023/07/24 05:08:49;;;;;;;17.60;7.90;;;20.80;99.90;;;;;;5012197;28;20224;-83
2023/07/24 05:11:14;;;;;;;15.70;7.60;;;20.50;99.90;;;;;;5012908;28;20174;-85
2023/07/24 05:13:40;;;;;;;16.40;8.57;;;20.50;99.90;;;;;;5019470;28;20684;-84
2023/07/24 05:16:05;;;;;;;11.60;6.43;;;20.30;99.90;;;;;;5016741;28;20650;-82
2023/07/24 05:18:31;;;;;;;16.60;9.27;;;20.20;99.90;;;;;;5028067;28;20216;-85
2023/07/24 05:20:56;;;;;;;13.87;9.37;;;20.10;99.90;;;;;;5018704;28;20185;-84
2023/07/24 05:23:22;;;;;;;16.20;8.80;;;20.00;99.90;;;;;;5009797;28;20194;-83
2023/07/24 05:25:55;;;;;;;15.93;8.57;;;19.80;99.90;;;;;;5007256;28;20268;-84
2023/07/24 05:28:21;;;;;;;11.33;7.97;;;19.60;99.90;;;;;;5010670;28;20867;-81
2023/07/24 05:30:46;;;;;;;16.80;8.40;;;19.70;99.90;;;;;;5004306;28;20444;-80
2023/07/24 05:33:12;;;;;;;16.10;8.93;;;19.60;99.90;;;;;;5012957;28;20294;-83
2023/07/24 05:35:37;;;;;;;15.90;7.70;;;19.60;99.90;;;;;;5015349;28;20186;-83
2023/07/24 05:38:03;;;;;;;17.67;9.07;;;19.60;99.90;;;;;;5009692;28;20209;-86
2023/07/24 05:40:28;;;;;;;19.80;8.80;;;19.80;99.90;;;;;;5014805;28;20186;-80
2023/07/24 05:42:54;;;;;;;15.77;7.90;;;19.80;99.90;;;;;;5016336;28;20217;-81
2023/07/24 05:45:19;;;;;;;9.47;6.30;;;19.90;99.90;;;;;;5023394;28;20790;-77
2023/07/24 05:47:45;;;;;;;14.30;7.23;;;20.00;99.90;;;;;;5026919;28;20201;-86
2023/07/24 05:50:13;;;;;;;11.93;7.20;;;20.00;99.90;;;;;;5020177;28;20233;-82
2023/07/24 05:52:38;;;;;;;12.07;6.70;;;19.90;99.90;;;;;;5012888;28;20225;-81
2023/07/24 05:55:04;;;;;;;11.53;6.77;;;19.90;99.90;;;;;;5017956;28;20472;-81
2023/07/24 05:57:30;;;;;;;12.10;6.53;;;20.00;99.90;;;;;;5016978;28;20241;-85
2023/07/24 05:59:56;;;;;;;11.70;6.97;;;20.80;99.90;;;;;;5017844;28;20479;-83
2023/07/24 06:02:21;;;;;;;9.33;6.13;;;20.30;99.90;;;;;;5011884;28;20193;-85
2023/07/24 06:04:47;;;;;;;10.27;6.70;;;20.50;99.90;;;;;;5013215;28;20197;-80
2023/07/24 06:07:12;;;;;;;20.90;7.33;;;20.90;99.90;;;;;;5009794;28;20190;-85
2023/07/24 06:09:38;;;;;;;13.43;5.30;;;20.70;99.90;;;;;;5019136;28;20225;-82
2023/07/24 06:12:05;;;;;;;14.37;7.00;;;20.80;99.90;;;;;;5040113;28;20201;-79
2023/07/24 06:14:30;;;;;;;12.87;7.30;;;20.80;99.90;;;;;;5023566;28;20302;-85
2023/07/24 06:16:56;;;;;;;13.00;7.07;;;20.90;99.90;;;;;;5018162;28;20959;-80
2023/07/24 06:19:21;;;;;;;12.23;7.43;;;20.80;99.90;;;;;;5013052;28;20209;-80
2023/07/24 06:21:47;;;;;;;10.80;6.90;;;20.90;99.90;;;;;;5014701;28;20212;-82
2023/07/24 06:24:13;;;;;;;9.63;7.10;;;21.00;99.90;;;;;;5019715;28;20194;-82
2023/07/24 06:26:39;;;;;;;12.13;7.57;;;21.10;99.90;;;;;;5019938;28;20178;-83
2023/07/24 06:29:05;;;;;;;11.50;6.93;;;21.20;99.90;;;;;;5009658;28;20547;-83
2023/07/24 06:31:30;;;;;;;12.57;7.80;;;21.30;99.90;;;;;;5016164;28;20468;-81
2023/07/24 06:33:56;;;;;;;17.13;7.50;;;21.60;99.90;;;;;;5009919;28;20691;-84
2023/07/24 06:36:21;;;;;;;11.57;6.80;;;21.60;99.90;;;;;;5010943;28;20220;-82
2023/07/24 06:38:47;;;;;;;12.07;7.40;;;21.80;99.90;;;;;;5006447;28;20216;-83
2023/07/24 06:41:16;;;;;;;14.20;7.70;;;21.90;99.90;;;;;;5016426;28;20192;-81
2023/07/24 06:43:42;;;;;;;13.97;7.67;;;21.90;99.90;;;;;;5017816;28;20443;-86
2023/07/24 06:46:08;;;;;;;12.57;8.27;;;21.90;99.90;;;;;;5014699;28;20463;-85
2023/07/24 06:48:33;;;;;;;14.10;8.47;;;21.90;99.90;;;;;;5007177;28;20992;-83
2023/07/24 06:50:59;;;;;;;14.10;7.13;;;22.00;99.90;;;;;;5011728;28;20165;-82
2023/07/24 06:53:24;;;;;;;17.77;8.10;;;22.10;99.90;;;;;;5004848;28;20214;-84
2023/07/24 06:55:50;;;;;;;13.87;7.90;;;22.30;99.90;;;;;;5010958;28;20190;-86
2023/07/24 06:58:15;;;;;;;12.47;7.53;;;22.50;99.90;;;;;;5028738;28;20219;-78
2023/07/24 07:00:41;;;;;;;14.30;8.20;;;22.60;99.90;;;;;;5028442;28;20966;-82
2023/07/24 07:03:06;;;;;;;14.00;8.47;;;22.50;99.90;;;;;;5015417;28;20194;-82
2023/07/24 07:05:32;;;;;;;13.07;8.80;;;22.70;99.90;;;;;;5014012;28;20205;-84
2023/07/24 07:07:58;;;;;;;19.10;8.33;;;;;;;;;;5021118;28;20208;-84
2023/07/24 07:10:24;;;;;;;11.33;9.17;;;21.90;99.90;;;;;;5017906;28;20245;-82
2023/07/24 07:12:51;;;;;;;16.37;8.30;;;22.00;99.90;;;;;;5021236;28;20479;-84
2023/07/24 07:15:16;;;;;;;20.17;9.20;;;22.00;99.90;;;;;;5012813;28;20755;-84
2023/07/24 07:17:42;;;;;;;13.20;7.70;;;22.00;99.90;;;;;;5011434;28;21210;-82
2023/07/24 07:20:07;;;;;;;16.30;8.90;;;22.10;99.90;;;;;;5014775;28;20235;-84
2023/07/24 07:22:33;;;;;;;13.97;8.90;;;22.20;99.90;;;;;;5016699;28;20186;-84
2023/07/24 07:24:59;;;;;;;14.80;8.67;;;22.30;99.90;;;;;;5018652;28;20182;-84
2023/07/24 07:27:24;;;;;;;13.70;8.20;;;22.50;99.90;;;;;;5016712;28;20661;-79
2023/07/24 07:29:50;;;;;;;13.53;8.57;;;22.70;99.90;;;;;;5021448;28;20228;-84
2023/07/24 07:32:15;;;;;;;12.30;8.80;;;23.00;99.90;;;;;;5014738;28;20225;-83
2023/07/24 07:34:41;;;;;;;18.90;8.93;;;;;;;;;;5017337;28;20194;-84
2023/07/24 07:37:07;;;;;;;13.57;8.57;;;23.60;99.90;;;;;;5016538;28;20192;-80
2023/07/24 07:39:32;;;;;;;13.70;8.60;;;23.70;99.90;;;;;;5015766;28;21197;-81
2023/07/24 07:41:58;;;;;;;12.63;7.47;;;24.20;99.90;;;;;;5030058;28;20185;-80
2023/07/24 07:44:24;;;;;;;16.57;8.87;;;23.40;99.90;;;;;;5032161;28;20185;-81
2023/07/24 07:46:49;;;;;;;16.80;8.90;;;23.20;99.90;;;;;;5027222;28;20550;-86
2023/07/24 07:49:15;;;;;;;15.40;7.83;;;23.30;99.90;;;;;;5027238;28;20444;-77
2023/07/24 07:51:41;;;;;;;13.53;8.00;;;;;;;;;;5022626;28;20209;-85
2023/07/24 07:54:06;;;;;;;14.10;8.77;;;23.00;99.90;;;;;;5023582;28;20251;-85
2023/07/24 07:56:31;;;;;;;13.07;8.27;;;22.50;99.90;;;;;;5024685;28;20447;-80
2023/07/24 07:58:57;;;;;;;19.17;8.57;;;22.30;99.90;;;;;;5023272;28;20336;-78
2023/07/24 08:01:23;;;;;;;10.37;5.00;;;21.90;99.90;;;;;;5020891;28;20979;-83
2023/07/24 08:03:48;;;;;;;8.67;4.23;;;19.60;99.90;;;;;;5011562;28;20186;-84
2023/07/24 08:06:14;;;;;;;10.80;6.20;;;18.80;99.90;;;;;;5020848;28;20287;-81
2023/07/24 08:08:39;;;;;;;10.93;7.13;;;18.70;99.90;;;;;;5009352;28;20206;-81
2023/07/24 08:11:06;;;;;;;15.57;8.47;;;18.80;99.90;;;;;;5017063;28;20515;-82
2023/07/24 08:13:32;;;;;;;11.00;7.17;;;18.90;99.90;;;;;;5032197;28;20227;-82
2023/07/24 08:15:59;;;;;;;11.53;7.80;;;18.90;99.90;;;;;;5019652;28;20448;-81
2023/07/24 08:18:27;;;;;;;15.33;9.37;;;18.70;99.90;;;;;;5014741;28;20544;-80
2023/07/24 08:20:52;;;;;;;13.33;8.30;;;18.70;99.90;;;;;;5014211;28;20444;-86
2023/07/24 08:23:18;;;;;;;12.03;7.63;;;18.60;99.90;;;;;;5015277;28;20435;-83
2023/07/24 08:25:54;;;;;;;15.53;8.30;;;18.60;99.90;;;;;;5014483;28;20646;-81
2023/07/24 08:28:20;;;;;;;14.23;7.77;;;18.50;99.90;;;;;;5017839;28;20213;-83
2023/07/24 08:30:47;;;;;;;16.07;8.67;;;18.50;99.90;;;;;;5016975;28;20459;-83
2023/07/24 08:33:12;;;;;;;13.90;8.30;;;18.50;99.90;;;;;;5012403;28;20605;-79
2023/07/24 08:35:38;;;;;;;11.47;7.87;;;18.60;99.90;;;;;;5040415;28;20516;-82
2023/07/24 08:38:04;;;;;;;11.83;8.67;;;18.60;99.90;;;;;;5026951;28;20210;-82
2023/07/24 08:40:29;;;;;;;14.80;8.93;;;18.70;99.90;;;;;;5013557;28;20178;-82
2023/07/24 08:42:55;;;;;;;16.70;9.50;;;19.00;99.90;;;;;;5017561;28;20189;-82
2023/07/24 08:45:23;;;;;;;16.93;9.77;;;19.10;99.90;;;;;;5013638;28;20181;-80
2023/07/24 08:47:49;;;;;;;12.90;9.00;;;;;;;;;;5022484;28;20475;-82
2023/07/24 08:50:15;;;;;;;14.23;9.53;;;19.40;99.90;;;;;;5010967;28;20436;-85
2023/07/24 08:52:42;;;;;;;16.00;8.77;;;19.80;99.90;;;;;;5013108;28;20987;-80
2023/07/24 08:55:09;;;;;;;13.77;9.50;;;19.90;99.90;;;;;;5013980;28;21005;-82
2023/07/24 08:57:35;;;;;;;14.23;9.70;;;20.10;99.90;;;;;;5023596;28;21160;-85
2023/07/24 09:00:04;;;;;;;16.03;9.43;;;20.10;99.90;;;;;;5009322;28;20519;-82
2023/07/24 09:02:30;;;;;;;20.10;10.60;;;;;;;;;;5009242;28;20451;-83
2023/07/24 09:04:56;;;;;;;17.53;8.97;;;20.70;99.90;;;;;;5010181;28;20441;-81
2023/07/24 09:07:22;;;;;;;17.53;10.27;;;;;;;;;;5011500;28;20466;-81
2023/07/24 09:09:50;;;;;;;18.67;9.87;;;21.10;99.90;;;;;;5010826;28;20257;-84
2023/07/24 09:12:16;;;;;;;12.93;8.30;;;21.10;99.90;;;;;;5009723;28;20471;-82
2023/07/24 09:14:41;;;;;;;14.40;9.73;;;20.90;99.90;;;;;;5009951;28;20435;-81
2023/07/24 09:17:09;;;;;;;17.50;10.50;;;20.80;99.90;;;;;;5011291;28;20545;-83
2023/07/24 09:19:36;;;;;;;19.73;9.93;;;20.90;99.90;;;;;;5019063;28;20206;-83
2023/07/24 09:22:13;;;;;;;12.80;8.63;;;20.90;99.90;;;;;;5031582;28;20602;-85
2023/07/24 09:24:52;;;;;;;17.50;9.40;;;20.90;99.90;;;;;;5015766;28;21051;-86
2023/07/24 09:27:18;;;;;;;15.13;9.80;;;21.10;99.90;;;;;;5013498;28;20436;-85
2023/07/24 09:29:44;;;;;;;28.23;17.17;;;;;;;;;;5008816;28;22290;-81
2023/07/24 09:32:21;;;;;;;17.83;12.80;;;21.20;99.90;;;;;;5010232;28;21197;-82
2023/07/24 09:34:47;;;;;;;13.70;8.90;;;21.10;99.90;;;;;;5031155;28;20444;-80
2023/07/24 09:37:23;;;;;;;12.30;8.70;;;21.20;99.90;;;;;;5018393;28;20712;-80
2023/07/24 09:39:48;;;;;;;15.10;9.30;;;21.10;99.90;;;;;;5021696;28;20197;-82
2023/07/24 09:42:14;;;;;;;16.10;9.50;;;21.10;99.90;;;;;;5014944;28;21135;-81
2023/07/24 09:44:39;;;;;;;13.50;10.20;;;21.70;99.90;;;;;;5017210;28;20197;-81
2023/07/24 09:47:06;;;;;;;12.87;9.53;;;23.40;99.90;;;;;;5014335;28;20182;-82
2023/07/24 09:49:31;;;;;;;17.27;9.80;;;23.40;99.90;;;;;;5016384;28;20804;-82
2023/07/24 09:52:03;;;;;;;14.77;9.17;;;23.40;99.90;;;;;;5019448;28;20465;-85
2023/07/24 09:54:40;;;;;;;15.57;8.97;;;23.60;99.90;;;;;;5018633;28;20221;-87
2023/07/24 09:57:08;;;;;;;17.53;9.07;;;24.00;99.90;;;;;;5014798;28;20535;-85
2023/07/24 09:59:34;;;;;;;17.83;10.80;;;23.70;99.90;;;;;;5026772;28;21148;-83
2023/07/24 10:02:01;;;;;;;16.43;9.90;;;23.10;99.90;;;;;;5012709;28;20466;-85
2023/07/24 10:04:27;;;;;;;14.00;10.00;;;22.80;99.90;;;;;;5027260;28;20445;-84
2023/07/24 10:06:53;;;;;;;15.60;9.50;;;22.60;99.90;;;;;;5018726;28;20460;-83
2023/07/24 10:09:22;;;;;;;15.50;9.23;;;22.40;99.90;;;;;;5020399;28;21261;-84
2023/07/24 10:11:48;;;;;;;17.17;9.80;;;22.20;99.90;;;;;;5018983;28;20488;-81
2023/07/24 10:14:14;;;;;;;16.13;10.70;;;21.80;99.90;;;;;;5010277;28;20996;-85
2023/07/24 10:16:40;;;;;;;14.37;9.53;;;;;;;;;;5015341;28;20186;-84
2023/07/24 10:19:18;;;;;;;12.67;8.20;;;21.90;99.90;;;;;;5013511;28;20209;-85
2023/07/24 10:21:51;;;;;;;14.13;9.17;;;22.00;99.90;;;;;;5017040;28;20436;-87
2023/07/24 10:24:17;;;;;;;18.70;10.10;;;;;;;;;;5024132;28;20439;-83
2023/07/24 10:26:42;;;;;;;16.37;9.97;;;22.00;99.90;;;;;;5020779;28;20446;-83
2023/07/24 10:29:13;;;;;;;13.33;8.37;;;21.80;99.90;;;;;;5011667;28;20449;-83
2023/07/24 10:31:40;;;;;;;16.60;9.43;;;;;;;;;;5009193;28;20267;-78
2023/07/24 10:34:07;;;;;;;13.47;9.67;;;21.60;99.90;;;;;;5014541;28;20932;-81
2023/07/24 10:36:36;;;;;;;18.00;10.77;;;21.60;99.90;;;;;;5016846;28;20810;-84
2023/07/24 10:39:02;;;;;;;12.83;9.73;;;21.60;99.90;;;;;;5017793;28;20453;-83
2023/07/24 10:41:35;;;;;;;20.87;10.33;;;21.40;99.90;;;;;;5005799;28;20448;-80
2023/07/24 10:44:01;;;;;;;13.53;9.20;;;21.10;99.90;;;;;;5008456;28;20444;-82
2023/07/24 10:46:37;;;;;;;14.23;8.43;;;20.90;99.90;;;;;;5015265;28;20468;-82
2023/07/24 10:49:03;;;;;;;16.27;9.23;;;20.60;99.90;;;;;;5007689;28;20543;-85
2023/07/24 10:51:37;;;;;;;16.50;9.57;;;20.50;99.90;;;;;;5014988;28;20441;-84
2023/07/24 10:54:04;;;;;;;18.40;10.23;;;20.40;99.90;;;;;;5017668;28;21448;-82
2023/07/24 10:56:30;;;;;;;12.27;8.63;;;20.20;99.90;;;;;;5024491;28;20505;-78
2023/07/24 10:58:55;;;;;;;16.90;8.63;;;20.20;99.90;;;;;;5036156;28;20447;-85
2023/07/24 11:01:23;;;;;;;13.77;9.13;;;20.10;99.90;;;;;;5029930;28;20467;-87
2023/07/24 11:03:49;;;;;;;15.37;8.37;;;19.90;99.90;;;;;;5020365;28;20605;-81
2023/07/24 11:06:16;;;;;;;16.57;9.80;;;19.90;99.90;;;;;;5020558;28;20429;-83
2023/07/24 11:08:43;;;;;;;14.27;9.40;;;;;;;;;;5019178;28;20457;-85
2023/07/24 11:11:09;;;;;;;14.20;9.40;;;;;;;;;;5020669;28;20427;-82
2023/07/24 11:13:34;;;;;;;17.77;10.90;;;19.80;99.90;;;;;;5012559;28;20504;-83
2023/07/24 11:16:08;;;;;;;17.70;10.17;;;19.80;99.90;;;;;;5009035;28;20491;-85
2023/07/24 11:18:47;;;;;;;12.93;9.07;;;19.80;99.90;;;;;;5016899;28;20206;-83
2023/07/24 11:21:13;;;;;;;15.87;9.43;;;19.80;99.90;;;;;;5016541;28;20444;-83
2023/07/24 11:23:53;;;;;;;16.70;9.87;;;19.80;99.90;;;;;;5020756;28;20436;-81
2023/07/24 11:26:23;;;;;;;15.37;9.83;;;19.80;99.90;;;;;;5008927;28;20440;-81
2023/07/24 11:28:50;;;;;;;12.60;8.83;;;19.90;99.90;;;;;;5009019;28;21043;-86
2023/07/24 11:31:19;;;;;;;14.73;8.90;;;;;;;;;;5013218;28;21074;-81
2023/07/24 11:33:46;;;;;;;14.20;8.73;;;19.90;99.90;;;;;;5009912;28;20463;-81
2023/07/24 11:36:12;;;;;;;10.83;7.67;;;;;;;;;;5015221;28;20456;-84
2023/07/24 11:38:38;;;;;;;12.77;6.93;;;19.80;99.90;;;;;;5016655;28;20456;-86
2023/07/24 11:41:05;;;;;;;11.37;8.23;;;;;;;;;;5013597;28;20444;-80
2023/07/24 11:43:31;;;;;;;12.03;9.00;;;;;;;;;;5013058;28;20440;-86
2023/07/24 11:45:57;;;;;;;11.77;7.30;;;19.70;99.90;;;;;;5010105;28;20444;-83
2023/07/24 11:48:24;;;;;;;13.37;7.90;;;19.70;99.90;;;;;;5015804;28;20468;-82
2023/07/24 11:50:56;;;;;;;12.43;8.10;;;19.90;99.90;;;;;;5014798;28;20227;-82
2023/07/24 11:53:29;;;;;;;11.93;7.47;;;20.30;99.90;;;;;;5020005;28;20452;-83
2023/07/24 11:55:59;;;;;;;12.40;8.33;;;22.20;99.90;;;;;;5024509;28;20425;-83
2023/07/24 11:58:29;;;;;;;12.67;7.80;;;22.20;99.90;;;;;;5017005;28;20442;-83
2023/07/24 12:00:55;;;;;;;9.97;6.73;;;22.80;99.90;;;;;;5017975;28;20439;-81
2023/07/24 12:03:28;;;;;;;10.67;7.07;;;23.60;99.90;;;;;;5020497;28;21059;-84
2023/07/24 12:05:54;;;;;;;10.83;7.20;;;24.20;99.90;;;;;;5016407;28;21027;-85
2023/07/24 12:08:34;;;;;;;10.47;7.60;;;23.90;99.90;;;;;;5019012;28;20520;-87
2023/07/24 12:11:00;;;;;;;14.50;6.40;;;24.00;99.90;;;;;;5014302;28;20650;-82
2023/07/24 12:13:25;;;;;;;16.13;8.20;;;23.90;99.90;;;;;;5011001;28;20463;-81
2023/07/24 12:15:51;;;;;;;12.60;8.00;;;22.90;99.90;;;;;;5018886;28;20460;-83
2023/07/24 12:18:17;;;;;;;11.93;8.10;;;22.40;99.90;;;;;;5026800;28;20197;-78
2023/07/24 12:20:42;;;;;;;9.20;7.20;;;22.10;99.90;;;;;;5025048;28;20261;-81
2023/07/24 12:23:09;;;;;;;12.80;8.00;;;21.60;99.90;;;;;;5022155;28;20191;-81
2023/07/24 12:25:35;;;;;;;12.53;8.03;;;21.50;99.90;;;;;;5020178;28;20532;-80
2023/07/24 12:28:00;;;;;;;11.60;7.57;;;21.50;99.90;;;;;;5011920;28;20556;-78
2023/07/24 12:30:26;;;;;;;12.87;7.57;;;22.20;99.90;;;;;;5019518;28;20182;-80
2023/07/24 12:32:52;;;;;;;10.00;6.27;;;21.50;99.90;;;;;;5016821;28;20300;-78
2023/07/24 12:35:17;;;;;;;14.43;8.03;;;21.40;99.90;;;;;;5018900;28;20277;-78
2023/07/24 12:37:45;;;;;;;11.83;7.73;;;21.40;99.90;;;;;;5012245;28;20170;-77
2023/07/24 12:40:11;;;;;;;10.87;6.70;;;21.20;99.90;;;;;;5014847;28;20209;-81